• Join FlightAware (Why Join?)
  • Login
  • US Flag 
09:49PM EST


 

Airport Tracker/Info


-or-


 

Live Flight TrackerFlight Track Log ✈ N54715 ✈ 18-Oct-2013 ✈ KBLD - KDVT

Flight Track Log - Related Links

Times and Time Zones

All times are in EDT time to prevent confusion due to time zone crossing. See the N54715 flight status page for this flight to view local times or setup timezone preferences in your user account.

Time Position Orientation Groundspeed Altitude Reporting Facility
EDT Latitude Longitude Course Direction KTS MPH feet Rate Location/Type
11:52PM 35.8947 -115.0897 134° Southeast 85 98 9,500  Level Los Angeles Center
11:53PM 35.8800 -115.0814 155° Southeast 82 94 5,100 -4,200 Descending Los Angeles Center
11:53PM 35.8769 -115.0753 122° Southeast 85 98 5,200 480 Climbing Los Angeles Center
11:54PM 35.8625 -115.0606 140° Southeast 89 102 5,600 540 Climbing Los Angeles Center
11:54PM 35.8544 -115.0506 135° Southeast 88 101 5,800 480 Climbing Los Angeles Center
11:55PM 35.8425 -115.0381 140° Southeast 91 105 6,100 360 Climbing Los Angeles Center
11:55PM 35.8369 -115.0275 123° Southeast 90 104 6,200 360 Climbing Los Angeles Center
11:56PM 35.8269 -115.0167 139° Southeast 91 105 6,500 360 Climbing Los Angeles Center
11:56PM 35.8211 -115.0042 120° Southeast 89 102 6,600 240 Climbing Los Angeles Center
11:57PM 35.8144 -114.9889 118° Southeast 86 99 6,800 360 Climbing Los Angeles Center
11:57PM 35.8089 -114.9794 126° Southeast 87 100 7,000 300 Climbing Los Angeles Center
11:58PM 35.6430 -114.4285 134° Southeast  Level FlightAware Approximate
11:58PM 35.7989 -114.9675 136° Southeast 90 104 7,100  Level Los Angeles Center
11:58PM 35.7928 -114.9556 122° Southeast 88 101 7,300 360 Climbing Los Angeles Center
11:59PM 35.7808 -114.9444 143° Southeast 93 107 7,500 360 Climbing Los Angeles Center
11:59PM 35.7756 -114.9319 117° Southeast 91 105 7,700 360 Climbing Los Angeles Center
12:00AM 35.7669 -114.9197 131° Southeast 89 102 7,900 180 Climbing Los Angeles Center
12:00AM 35.7639 -114.9119 116° Southeast 90 104 7,900 360 Level Los Angeles Center
12:01AM 35.7489 -114.8967 140° Southeast 94 108 8,300 360 Climbing Los Angeles Center
12:01AM 35.7478 -114.8867 98° East 92 106 8,300 360 Level Los Angeles Center
12:02AM 35.7322 -114.8703 139° Southeast 95 109 8,700 540 Climbing Los Angeles Center
12:02AM 35.7222 -114.8528 125° Southeast 96 110 8,900 360 Climbing Los Angeles Center
12:03AM 35.7022 -114.8297 137° Southeast 97 112 9,300 300 Climbing Los Angeles Center
12:04AM 35.6789 -114.8097 145° Southeast 99 114 9,600 120 Climbing Los Angeles Center
12:05AM 35.6544 -114.7819 137° Southeast 117 135 9,600  Level Los Angeles Center
12:06AM 35.6331 -114.7464 127° Southeast 128 147 9,600 -60 Level Los Angeles Center
12:07AM 35.6200 -114.7072 112° Southeast 124 143 9,500 -60 Descending Los Angeles Center
12:09AM 35.6056 -114.6794 123° Southeast 120 138 9,500  Level Los Angeles Center
12:10AM 35.5747 -114.6397 134° Southeast 133 153 9,500  Level Los Angeles Center
12:11AM 35.5469 -114.6006 131° Southeast 128 147 9,600  Climbing Los Angeles Center
12:12AM 35.5228 -114.5686 133° Southeast 129 148 9,500  Descending Los Angeles Center
12:13AM 35.4978 -114.5358 133° Southeast 131 151 9,600  Climbing Los Angeles Center
12:14AM 35.4739 -114.5042 133° Southeast 128 147 9,600  Level Los Angeles Center
12:15AM 35.4511 -114.4700 129° Southeast 129 148 9,600 -60 Level Los Angeles Center
12:16AM 35.4250 -114.4364 134° Southeast 133 153 9,500  Descending Los Angeles Center
12:17AM 35.4003 -114.4019 131° Southeast 135 155 9,600  Climbing Los Angeles Center
12:18AM 35.3781 -114.3683 129° Southeast 130 150 9,600  Level Los Angeles Center
12:19AM 35.3517 -114.3253 127° Southeast 131 151 9,600  Level Los Angeles Center
12:20AM 35.3300 -114.2881 126° Southeast 132 152 9,600  Level Los Angeles Center
12:21AM 35.3044 -114.2569 135° Southeast 130 150 9,600  Level Los Angeles Center
12:22AM 35.2767 -114.2275 139° Southeast 131 151 9,600  Level Los Angeles Center
12:23AM 35.2492 -114.1850 128° Southeast 132 152 9,600  Level Los Angeles Center
12:24AM 35.2261 -114.1511 130° Southeast 131 151 9,600  Level Los Angeles Center
12:25AM 35.1928 -114.1283 151° Southeast 132 152 9,600  Level Los Angeles Center
12:26AM 35.1572 -114.1119 159° South 136 157 9,600 -60 Level Los Angeles Center
12:27AM 35.1222 -114.0767 140° Southeast 135 155 9,500 -60 Descending Los Angeles Center
12:28AM 35.0944 -114.0461 138° Southeast 135 155 9,500  Level Los Angeles Center
12:29AM 35.0694 -114.0142 134° Southeast 133 153 9,500  Level Los Angeles Center
12:30AM 35.0528 -113.9769 119° Southeast 128 147 9,600  Climbing Los Angeles Center
12:31AM 35.0397 -113.9369 112° Southeast 125 144 9,600  Level Los Angeles Center
12:32AM 35.0272 -113.8944 110° East 128 147 9,600  Level Los Angeles Center
12:33AM 35.0086 -113.8567 121° Southeast 129 148 9,600  Level Los Angeles Center
12:34AM 34.9822 -113.8253 136° Southeast 130 150 9,600  Level Los Angeles Center
12:35AM 34.9544 -113.7953 138° Southeast 131 151 9,600  Level Los Angeles Center
12:36AM 34.9164 -113.7667 148° Southeast 133 153 9,600 -60 Level Los Angeles Center
12:37AM 34.8825 -113.7478 155° Southeast 134 154 9,500  Descending Los Angeles Center
12:38AM 34.8556 -113.7308 153° Southeast 135 155 9,600  Climbing Albuquerque Center
12:39AM 34.8233 -113.7089 151° Southeast 134 154 9,600 -60 Level Albuquerque Center
12:40AM 34.7947 -113.6769 137° Southeast 138 159 9,500 -60 Descending Albuquerque Center
12:41AM 34.7706 -113.6422 130° Southeast 136 157 9,500 -60 Level Albuquerque Center
12:42AM 34.7519 -113.6028 120° Southeast 136 157 9,400  Descending Albuquerque Center
12:43AM 34.7358 -113.5636 117° Southeast 132 152 9,600 60 Climbing Albuquerque Center
12:44AM 34.7222 -113.5253 113° Southeast 127 146 9,600 -60 Level Albuquerque Center
12:45AM 34.7031 -113.4875 122° Southeast 130 150 9,500 -60 Descending Albuquerque Center
12:46AM 34.6828 -113.4506 124° Southeast 132 152 9,500 -60 Level Albuquerque Center
12:47AM 34.6647 -113.4131 120° Southeast 130 150 9,400  Descending Albuquerque Center
12:48AM 34.6494 -113.3778 118° Southeast 125 144 9,600  Climbing Albuquerque Center
12:49AM 34.6322 -113.3336 115° Southeast 122 140 9,400 -60 Descending Albuquerque Center
12:50AM 34.6169 -113.2956 116° Southeast 124 143 9,500  Climbing Albuquerque Center
12:51AM 34.6031 -113.2575 114° Southeast 124 143 9,400  Descending Albuquerque Center
12:52AM 34.5931 -113.2181 107° East 124 143 9,500 60 Climbing Albuquerque Center
12:53AM 34.5761 -113.1833 121° Southeast 125 144 9,600  Climbing Albuquerque Center
12:54AM 34.5456 -113.1606 148° Southeast 129 148 9,500 -60 Descending Albuquerque Center
12:55AM 34.5142 -113.1394 151° Southeast 130 150 9,500  Level Albuquerque Center
12:56AM 34.4839 -113.1178 149° Southeast 129 148 9,500  Level Albuquerque Center
12:57AM 34.4522 -113.0994 154° Southeast 128 147 9,600  Climbing Albuquerque Center
12:58AM 34.4169 -113.0836 160° South 132 152 9,500 -60 Descending Albuquerque Center
12:59AM 34.3828 -113.0686 160° South 133 153 9,500  Level Albuquerque Center
01:00AM 34.3547 -113.0342 135° Southeast 134 154 9,600  Climbing Albuquerque Center
01:01AM 34.3267 -113.0092 144° Southeast 126 145 9,500 60 Descending Albuquerque Center
01:02AM 34.2994 -112.9856 144° Southeast 121 139 9,800 120 Climbing Albuquerque Center
01:03AM 34.2753 -112.9547 133° Southeast 125 144 9,800  Level Albuquerque Center
01:04AM 34.2456 -112.9158 133° Southeast 131 151 9,800 -120 Level Albuquerque Center
01:05AM 34.2261 -112.8894 132° Southeast 131 151 9,600  Descending Albuquerque Center
01:06AM 34.2217 -112.8839 134° Southeast 130 150 9,800  Climbing Albuquerque Center
01:06AM 34.2158 -112.8792 146° Southeast 128 147 9,600  Descending Albuquerque Center
01:07AM 34.1947 -112.8561 138° Southeast 127 146 9,800  Climbing Albuquerque Center
01:07AM 34.1897 -112.8525 149° Southeast 124 143 9,600 -240 Descending Albuquerque Center
01:08AM 34.1681 -112.8289 138° Southeast 126 145 9,600  Level Albuquerque Center
01:08AM 34.1639 -112.8256 146° Southeast 127 146 9,600  Level Albuquerque Center
01:09AM 34.1450 -112.7969 129° Southeast 126 145 9,600  Level Albuquerque Center
01:09AM 34.1417 -112.7953 158° South 127 146 9,600  Level Albuquerque Center
01:10AM 34.1192 -112.7683 135° Southeast 126 145 9,600  Level Albuquerque Center
01:10AM 34.1147 -112.7636 139° Southeast 128 147 9,600  Level Albuquerque Center
01:11AM 34.0917 -112.7406 140° Southeast 128 147 9,600  Level Albuquerque Center
01:11AM 34.0867 -112.7372 151° Southeast 128 147 9,600 -120 Level Albuquerque Center
01:12AM 34.0622 -112.7169 146° Southeast 126 145 9,500 -120 Descending Albuquerque Center
01:12AM 34.0556 -112.7169 180° South 127 146 9,500  Level Albuquerque Center
01:13AM 34.0267 -112.6986 152° Southeast 125 144 9,500  Level Albuquerque Center
01:14AM 34.0011 -112.6747 142° Southeast 127 146 9,500  Level Albuquerque Center
01:14AM 33.9961 -112.6703 144° Southeast 127 146 9,500  Level Albuquerque Center
01:15AM 33.9725 -112.6497 144° Southeast 128 147 9,500  Level Albuquerque Center
01:15AM 33.9636 -112.6428 147° Southeast 127 146 9,500  Level Albuquerque Center
01:16AM 33.9467 -112.6239 137° Southeast 124 143 9,500 60 Level Albuquerque Center
01:16AM 33.9397 -112.6156 135° Southeast 125 144 9,600 60 Climbing Albuquerque Center
01:17AM 33.9211 -112.5958 139° Southeast 124 143 9,600  Level Albuquerque Center
01:17AM 33.9111 -112.5869 144° Southeast 123 142 9,600  Level Albuquerque Center
01:18AM 33.8944 -112.5700 140° Southeast 124 143 9,600  Level Albuquerque Center
01:18AM 33.8831 -112.5608 146° Southeast 126 145 9,600  Level Albuquerque Center
01:19AM 33.8653 -112.5458 145° Southeast 126 145 9,600  Level Albuquerque Center
01:19AM 33.8558 -112.5394 151° Southeast 129 148 9,600 -240 Level Albuquerque Center
01:20AM 33.8367 -112.5211 142° Southeast 127 146 9,400 -420 Descending Albuquerque Center
01:20AM 33.8286 -112.5183 164° South 122 140 9,200 -540 Descending Albuquerque Center
01:21AM 33.8086 -112.5014 145° Southeast 119 137 8,900 -420 Descending Albuquerque Center
01:21AM 33.7994 -112.4975 161° South 118 136 8,800 -300 Descending Albuquerque Center
01:22AM 33.7831 -112.4769 134° Southeast 118 136 8,600 -300 Descending Albuquerque Center
01:22AM 33.7750 -112.4681 137° Southeast 118 136 8,500 -300 Descending Albuquerque Center
01:23AM 33.7639 -112.4467 122° Southeast 117 135 8,300 -420 Descending Albuquerque Center
01:23AM 33.7572 -112.4392 137° Southeast 114 131 8,100 -420 Descending Albuquerque Center
01:24AM 33.7436 -112.4186 129° Southeast 112 129 7,900 -420 Descending Albuquerque Center
01:24AM 33.7353 -112.4117 145° Southeast 112 129 7,700 -540 Descending Albuquerque Center
01:25AM 33.7181 -112.3869 130° Southeast 111 128 7,400 -420 Descending Albuquerque Center
01:25AM 33.7133 -112.3842 154° Southeast 112 129 7,300 -420 Descending Albuquerque Center
01:26AM 33.6972 -112.3586 127° Southeast 112 129 7,000 -360 Descending Albuquerque Center
01:26AM 33.6928 -112.3536 137° Southeast 112 129 6,900 -420 Descending Albuquerque Center
01:27AM 33.6783 -112.3294 126° Southeast 111 128 6,600 -420 Descending Albuquerque Center
01:27AM 33.6725 -112.3231 138° Southeast 112 129 6,500 -540 Descending Albuquerque Center
01:28AM 33.6711 -112.2981 94° East 111 128 6,100 -600 Descending Albuquerque Center
01:29AM 33.6747 -112.2608 83° East 113 130 5,500 -420 Descending Albuquerque Center
01:30AM 33.6775 -112.2231 85° East 113 130 5,300 -240 Descending Albuquerque Center